Time;durP1;ratioP1;P1;durP2;ratioP2;P2;SDS_P1;SDS_P2;PMS_P1;PMS_P2;Temp;Humidity;BMP_temperature;BMP_pressure;BME280_temperature;BME280_humidity;BME280_pressure;Samples;Min_cycle;Max_cycle;Signal;HPM_P1;HPM_P2
2022/07/06 00:00:15;;;;;;;2.40;1.77;;;23.00;88.80;;;;;;5023475;28;21026;-80
2022/07/06 00:02:43;;;;;;;2.63;1.30;;;23.00;88.00;;;;;;5024773;28;20491;-80
2022/07/06 00:05:12;;;;;;;1.60;1.50;;;23.00;89.50;;;;;;5021482;28;20968;-80
2022/07/06 00:07:40;;;;;;;1.50;1.40;;;22.90;88.20;;;;;;5023169;28;21096;-79
2022/07/06 00:10:08;;;;;;;1.50;1.40;;;22.90;87.40;;;;;;5023425;28;20456;-80
2022/07/06 00:12:37;;;;;;;1.93;1.50;;;22.90;88.10;;;;;;5025195;28;20593;-79
2022/07/06 00:15:06;;;;;;;1.57;1.30;;;22.90;88.70;;;;;;5025083;28;20462;-81
2022/07/06 00:17:36;;;;;;;1.73;1.40;;;22.80;82.80;;;;;;5018683;28;20453;-80
2022/07/06 00:20:05;;;;;;;2.57;1.50;;;22.80;87.70;;;;;;5024708;28;20452;-80
2022/07/06 00:22:33;;;;;;;3.10;1.60;;;22.80;83.10;;;;;;5022851;28;20562;-81
2022/07/06 00:25:01;;;;;;;1.40;1.30;;;22.70;87.10;;;;;;5025941;28;20602;-80
2022/07/06 00:27:29;;;;;;;1.40;1.30;;;22.70;88.90;;;;;;5024679;28;20449;-80
2022/07/06 00:29:58;;;;;;;1.40;1.30;;;22.70;86.80;;;;;;5021667;28;20464;-80
2022/07/06 00:32:27;;;;;;;1.50;1.40;;;22.70;87.00;;;;;;5026676;28;20495;-81
2022/07/06 00:34:56;;;;;;;1.57;1.40;;;22.60;87.80;;;;;;5023515;28;20471;-80
2022/07/06 00:37:25;;;;;;;1.63;1.53;;;22.60;89.60;;;;;;5026205;28;20467;-82
2022/07/06 00:39:53;;;;;;;1.90;1.40;;;22.60;90.50;;;;;;5024222;28;21179;-81
2022/07/06 00:42:21;;;;;;;2.70;1.40;;;22.60;87.20;;;;;;5020857;28;20488;-80
2022/07/06 00:44:49;;;;;;;2.50;1.40;;;22.60;85.00;;;;;;5021419;28;20535;-80
2022/07/06 00:47:18;;;;;;;2.47;1.30;;;22.50;86.70;;;;;;5017872;28;20972;-80
2022/07/06 00:52:33;;;;;;;2.63;1.60;;;22.50;87.10;;;;;;5022773;28;20472;-81
2022/07/06 00:55:02;;;;;;;1.43;1.33;;;22.50;82.80;;;;;;5023956;28;20463;-81
2022/07/06 00:57:30;;;;;;;2.03;1.70;;;22.40;84.30;;;;;;5026403;28;20535;-81
2022/07/06 00:59:59;;;;;;;1.67;1.40;;;22.40;85.60;;;;;;5020734;28;20466;-80
2022/07/06 01:02:28;;;;;;;1.73;1.37;;;22.40;82.10;;;;;;5020091;28;20489;-80
2022/07/06 01:04:56;;;;;;;1.67;1.57;;;22.40;82.60;;;;;;5023991;28;20482;-80
2022/07/06 01:07:24;;;;;;;4.17;1.60;;;22.40;84.80;;;;;;5023826;28;20529;-80
2022/07/06 01:09:54;;;;;;;1.30;1.20;;;22.40;83.70;;;;;;5024268;28;20441;-80
2022/07/06 01:12:22;;;;;;;1.80;1.60;;;22.40;84.00;;;;;;5023155;28;20862;-81
2022/07/06 01:14:51;;;;;;;1.80;1.60;;;22.40;84.10;;;;;;5018357;28;20460;-79
2022/07/06 01:17:20;;;;;;;1.60;1.50;;;22.40;82.60;;;;;;5019298;28;20465;-80
2022/07/06 01:19:48;;;;;;;1.93;1.30;;;22.40;83.70;;;;;;5025718;28;20456;-79
2022/07/06 01:22:18;;;;;;;1.27;1.17;;;22.40;84.00;;;;;;5021726;28;20484;-80
2022/07/06 01:24:46;;;;;;;1.30;1.20;;;22.40;83.70;;;;;;5017260;28;20476;-79
2022/07/06 01:27:14;;;;;;;1.50;1.40;;;22.40;81.70;;;;;;5017385;28;20466;-79
2022/07/06 01:29:42;;;;;;;1.50;1.40;;;22.40;83.00;;;;;;5026083;28;21010;-79
2022/07/06 01:32:10;;;;;;;1.50;1.27;;;22.40;84.10;;;;;;5020158;28;20483;-81
2022/07/06 01:34:39;;;;;;;1.40;1.20;;;22.40;82.50;;;;;;5023837;28;20465;-80
2022/07/06 01:37:07;;;;;;;1.40;1.30;;;22.30;81.50;;;;;;5014252;28;20466;-80
2022/07/06 01:39:37;;;;;;;1.50;1.40;;;22.30;81.60;;;;;;5020507;28;20459;-79
2022/07/06 01:42:06;;;;;;;1.50;1.40;;;22.20;81.40;;;;;;5025158;28;20487;-80
2022/07/06 01:44:34;;;;;;;1.83;1.57;;;22.20;75.60;;;;;;5018837;28;20494;-80
2022/07/06 01:47:03;;;;;;;1.30;1.20;;;22.20;80.30;;;;;;5017294;28;20554;-80
2022/07/06 01:49:31;;;;;;;1.70;1.60;;;22.10;78.60;;;;;;5022687;28;20467;-78
2022/07/06 01:51:59;;;;;;;1.60;1.23;;;22.10;78.30;;;;;;5019748;28;20479;-79
2022/07/06 01:54:27;;;;;;;2.67;1.30;;;22.10;78.80;;;;;;5021006;28;20465;-79
2022/07/06 01:56:57;;;;;;;1.40;1.30;;;22.10;78.60;;;;;;5017903;28;21369;-79
2022/07/06 01:59:25;;;;;;;1.90;1.23;;;22.10;76.40;;;;;;5021799;28;20463;-79
2022/07/06 02:01:53;;;;;;;1.50;1.40;;;22.10;78.80;;;;;;5019953;28;20481;-81
2022/07/06 02:04:21;;;;;;;1.20;1.10;;;22.10;78.70;;;;;;5018525;28;20468;-79
2022/07/06 02:06:50;;;;;;;2.10;1.50;;;22.10;77.30;;;;;;5020328;28;20872;-81
2022/07/06 02:09:18;;;;;;;1.67;1.30;;;22.10;79.50;;;;;;5022237;28;20449;-79
2022/07/06 02:11:46;;;;;;;3.90;1.20;;;22.00;77.50;;;;;;5023567;28;20476;-79
2022/07/06 02:14:16;;;;;;;2.60;1.30;;;22.00;77.80;;;;;;5020786;28;20510;-80
2022/07/06 02:16:44;;;;;;;2.40;1.50;;;21.90;75.40;;;;;;5020721;28;20476;-80
2022/07/06 02:19:13;;;;;;;1.73;1.30;;;22.00;84.30;;;;;;5025292;28;20509;-80
2022/07/06 02:21:41;;;;;;;2.03;1.23;;;21.90;77.40;;;;;;5020367;28;20488;-79
2022/07/06 02:24:10;;;;;;;1.50;1.40;;;21.90;76.20;;;;;;5016497;28;20474;-80
2022/07/06 02:26:38;;;;;;;1.37;1.23;;;21.90;73.00;;;;;;5023319;28;20512;-80
2022/07/06 02:29:06;;;;;;;1.93;1.50;;;21.90;75.60;;;;;;5019185;28;20462;-80
2022/07/06 02:31:36;;;;;;;2.03;1.30;;;21.80;73.80;;;;;;5022664;28;20492;-79
2022/07/06 02:34:04;;;;;;;1.47;1.37;;;21.80;75.40;;;;;;5023126;28;20464;-80
2022/07/06 02:36:33;;;;;;;1.23;1.13;;;21.80;74.40;;;;;;5023932;28;20456;-79
2022/07/06 02:39:01;;;;;;;1.40;1.30;;;21.80;75.50;;;;;;5024542;28;20883;-79
2022/07/06 02:41:29;;;;;;;3.80;1.47;;;21.70;75.70;;;;;;5021823;28;20499;-80
2022/07/06 02:43:57;;;;;;;1.60;1.10;;;21.70;75.70;;;;;;5024908;28;20486;-80
2022/07/06 02:46:25;;;;;;;1.30;1.20;;;21.70;74.70;;;;;;5023039;28;20776;-81
2022/07/06 02:48:55;;;;;;;2.00;1.30;;;21.70;76.20;;;;;;5023903;28;20498;-79
2022/07/06 02:51:23;;;;;;;1.53;1.40;;;21.70;74.90;;;;;;5016857;28;20472;-80
2022/07/06 02:53:52;;;;;;;2.00;1.60;;;21.70;75.20;;;;;;5023645;28;20456;-79
2022/07/06 02:56:20;;;;;;;1.93;1.60;;;21.60;75.00;;;;;;5022639;28;20952;-80
2022/07/06 02:58:48;;;;;;;1.53;1.20;;;21.60;74.80;;;;;;5021162;28;20436;-79
2022/07/06 03:01:16;;;;;;;1.40;1.30;;;21.60;76.20;;;;;;5054342;28;20485;-79
2022/07/06 03:03:45;;;;;;;1.60;1.50;;;21.60;75.70;;;;;;5016551;28;20481;-78
2022/07/06 03:06:14;;;;;;;1.40;1.30;;;21.60;76.40;;;;;;5023666;28;20492;-79
2022/07/06 03:08:42;;;;;;;1.93;1.83;;;21.60;75.00;;;;;;5023872;28;20701;-80
2022/07/06 03:11:11;;;;;;;1.50;1.40;;;21.60;76.90;;;;;;5024708;28;20475;-79
2022/07/06 03:13:39;;;;;;;3.60;1.40;;;21.60;75.60;;;;;;5022299;28;20953;-79
2022/07/06 03:16:07;;;;;;;2.00;1.73;;;21.60;76.20;;;;;;5030113;28;20952;-81
2022/07/06 03:18:35;;;;;;;1.83;1.60;;;21.50;76.60;;;;;;5023179;28;20477;-81
2022/07/06 03:21:04;;;;;;;6.40;1.60;;;21.50;75.60;;;;;;5025024;28;20476;-81
2022/07/06 03:23:34;;;;;;;2.17;1.70;;;21.40;75.50;;;;;;5022440;28;20472;-81
2022/07/06 03:26:02;;;;;;;4.70;1.70;;;21.40;74.60;;;;;;5025265;28;20456;-80
2022/07/06 03:28:31;;;;;;;2.20;1.50;;;21.50;77.60;;;;;;5024060;28;20902;-81
2022/07/06 03:30:59;;;;;;;1.90;1.67;;;21.40;76.30;;;;;;5022406;28;21029;-80
2022/07/06 03:33:27;;;;;;;2.40;1.60;;;21.40;77.00;;;;;;5023997;28;20456;-80
2022/07/06 03:35:55;;;;;;;2.37;1.80;;;21.40;77.40;;;;;;5020367;28;20875;-80
2022/07/06 03:38:24;;;;;;;2.83;1.83;;;21.40;77.70;;;;;;5056385;28;20824;-84
2022/07/06 03:40:54;;;;;;;4.13;1.40;;;21.40;77.50;;;;;;5024547;28;20477;-81
2022/07/06 03:43:23;;;;;;;2.80;1.70;;;21.40;79.30;;;;;;5053540;28;20494;-81
2022/07/06 03:45:51;;;;;;;1.70;1.60;;;21.30;86.90;;;;;;5018193;28;21459;-78
2022/07/06 03:48:19;;;;;;;1.77;1.67;;;21.30;79.00;;;;;;5024075;28;20456;-80
2022/07/06 03:50:48;;;;;;;1.90;1.57;;;21.30;79.00;;;;;;5023793;28;20484;-79
2022/07/06 03:53:16;;;;;;;2.03;1.70;;;21.30;80.80;;;;;;5023251;28;20479;-80
2022/07/06 03:56:27;;;;;;;3.13;2.03;;;21.30;81.60;;;;;;5027975;28;20510;-80
2022/07/06 03:58:34;;;;;;;1.70;1.60;;;21.30;80.80;;;;;;5019087;28;20477;-80
2022/07/06 04:01:02;;;;;;;3.00;2.17;;;21.30;82.60;;;;;;5018255;28;21015;-80
2022/07/06 04:03:31;;;;;;;2.10;1.70;;;21.30;80.40;;;;;;5023122;28;20472;-80
2022/07/06 04:06:01;;;;;;;2.60;1.97;;;21.20;81.40;;;;;;5026475;28;20455;-81
2022/07/06 04:08:29;;;;;;;2.40;1.83;;;21.10;80.60;;;;;;5024682;28;20444;-80
2022/07/06 04:10:57;;;;;;;2.50;2.07;;;21.10;82.20;;;;;;5027617;28;20496;-81
2022/07/06 04:13:26;;;;;;;2.20;2.00;;;21.20;82.70;;;;;;5027588;28;20460;-81
2022/07/06 04:15:55;;;;;;;2.43;2.07;;;21.20;84.10;;;;;;5023434;28;20705;-81
2022/07/06 04:18:24;;;;;;;2.97;2.73;;;21.20;83.10;;;;;;5026162;28;20527;-79
2022/07/06 04:20:53;;;;;;;2.00;1.90;;;21.20;83.60;;;;;;5023791;28;20457;-79
2022/07/06 04:23:21;;;;;;;2.90;2.70;;;21.20;84.50;;;;;;5022406;28;20484;-80
2022/07/06 04:25:49;;;;;;;4.80;2.13;;;21.20;85.10;;;;;;5022703;28;20460;-79
2022/07/06 04:28:18;;;;;;;2.37;2.23;;;21.10;87.20;;;;;;5025166;28;20495;-79
2022/07/06 04:30:47;;;;;;;3.10;2.33;;;21.10;85.80;;;;;;5025489;28;20479;-79
2022/07/06 04:33:16;;;;;;;2.70;2.33;;;21.10;86.40;;;;;;5027331;28;21325;-79
2022/07/06 04:35:45;;;;;;;2.40;2.30;;;21.10;86.50;;;;;;5019016;28;21040;-76
2022/07/06 04:38:13;;;;;;;2.83;2.30;;;21.00;85.10;;;;;;5026015;28;20464;-77
2022/07/06 04:40:41;;;;;;;3.20;2.30;;;20.90;86.80;;;;;;5020822;28;20499;-78
2022/07/06 04:43:09;;;;;;;3.70;1.77;;;20.90;87.90;;;;;;5024343;28;20535;-77
2022/07/06 04:45:37;;;;;;;2.80;2.60;;;20.90;87.60;;;;;;5022268;28;20508;-78
2022/07/06 04:48:08;;;;;;;2.60;2.00;;;20.90;90.00;;;;;;5026159;28;20559;-77
2022/07/06 04:50:37;;;;;;;5.27;2.33;;;20.90;87.30;;;;;;5029434;28;20959;-81
2022/07/06 04:53:07;;;;;;;3.10;2.77;;;21.00;90.50;;;;;;5028458;28;20476;-81
2022/07/06 04:55:36;;;;;;;2.97;2.40;;;21.10;90.60;;;;;;5028670;28;20440;-82
2022/07/06 04:58:04;;;;;;;3.00;2.70;;;21.20;91.50;;;;;;5027185;28;20445;-82
2022/07/06 05:00:32;;;;;;;3.50;2.20;;;21.20;92.70;;;;;;5028756;28;20450;-82
2022/07/06 05:03:01;;;;;;;2.50;2.30;;;21.20;92.10;;;;;;5030271;28;20461;-84
2022/07/06 05:05:29;;;;;;;4.87;2.70;;;21.20;92.50;;;;;;5061024;28;21042;-83
2022/07/06 05:07:59;;;;;;;2.90;2.50;;;21.20;92.30;;;;;;5023551;28;20544;-83
2022/07/06 05:10:27;;;;;;;2.93;2.33;;;21.20;93.20;;;;;;5026525;28;20467;-82
2022/07/06 05:12:56;;;;;;;2.60;2.40;;;21.20;93.10;;;;;;5030680;28;20445;-83
2022/07/06 05:15:24;;;;;;;2.73;2.53;;;21.20;93.10;;;;;;5028694;28;20466;-83
2022/07/06 05:17:52;;;;;;;3.10;2.37;;;21.20;99.90;;;;;;5031996;28;20450;-83
2022/07/06 05:20:21;;;;;;;4.60;2.50;;;21.20;93.40;;;;;;5031685;28;20479;-82
2022/07/06 05:22:49;;;;;;;2.13;2.00;;;21.30;94.50;;;;;;5040263;28;20440;-84
2022/07/06 05:25:19;;;;;;;2.10;2.00;;;21.20;93.90;;;;;;5033209;28;20465;-82
2022/07/06 05:27:47;;;;;;;2.92;2.72;;;21.20;94.50;;;;;;5026676;28;20454;-83
2022/07/06 05:30:16;;;;;;;2.43;2.23;;;21.30;99.90;;;;;;5020707;28;20669;-83
2022/07/06 05:32:44;;;;;;;2.60;2.40;;;21.40;95.60;;;;;;5021873;28;21275;-83
2022/07/06 05:35:12;;;;;;;2.80;2.60;;;21.40;96.10;;;;;;5027453;28;20791;-86
2022/07/06 05:38:01;;;;;;;2.53;2.33;;;21.50;96.60;;;;;;5025665;28;20516;-84
2022/07/06 05:40:30;;;;;;;2.70;2.50;;;21.40;96.00;;;;;;5030402;28;20540;-83
2022/07/06 05:42:59;;;;;;;2.97;1.90;;;21.40;96.10;;;;;;5031018;28;20478;-84
2022/07/06 05:45:27;;;;;;;2.63;2.47;;;21.40;96.00;;;;;;5026509;28;20464;-85
2022/07/06 05:50:41;;;;;;;2.60;2.40;;;21.50;96.70;;;;;;5032752;28;20478;-83
2022/07/06 05:53:09;;;;;;;4.17;2.33;;;21.50;96.90;;;;;;5026020;28;20444;-83
2022/07/06 05:55:48;;;;;;;2.80;2.60;;;21.40;96.40;;;;;;5024826;28;20449;-84
2022/07/06 05:58:16;;;;;;;2.63;2.20;;;21.40;95.70;;;;;;5032424;28;20456;-83
2022/07/06 06:00:45;;;;;;;2.40;1.80;;;21.50;97.30;;;;;;5029298;28;21057;-83
2022/07/06 06:03:13;;;;;;;2.13;1.97;;;21.50;96.80;;;;;;5034473;28;20519;-83
2022/07/06 06:05:42;;;;;;;2.53;2.33;;;21.50;98.40;;;;;;5029849;28;20567;-83
2022/07/06 06:08:10;;;;;;;2.33;2.20;;;21.60;97.80;;;;;;5021629;28;20449;-84
2022/07/06 06:10:39;;;;;;;2.00;1.80;;;21.50;98.50;;;;;;5029452;28;20452;-83
2022/07/06 06:13:09;;;;;;;2.57;2.37;;;21.50;98.30;;;;;;5034518;28;20453;-83
2022/07/06 06:15:38;;;;;;;2.43;1.80;;;21.60;97.90;;;;;;5030011;28;20445;-83
2022/07/06 06:18:06;;;;;;;1.93;1.83;;;21.60;97.70;;;;;;5032715;28;20457;-83
2022/07/06 06:20:35;;;;;;;3.13;2.30;;;21.60;99.10;;;;;;5034406;28;20455;-83
2022/07/06 06:23:04;;;;;;;2.10;2.00;;;21.70;99.00;;;;;;5030467;28;20462;-84
2022/07/06 06:25:34;;;;;;;2.67;2.13;;;21.70;98.90;;;;;;5027545;28;20472;-83
2022/07/06 06:28:03;;;;;;;2.93;2.13;;;21.70;98.40;;;;;;5029083;28;20851;-83
2022/07/06 06:30:33;;;;;;;2.30;2.10;;;21.70;98.50;;;;;;5031132;28;20456;-83
2022/07/06 06:33:09;;;;;;;1.80;1.70;;;21.80;98.90;;;;;;5022071;28;20473;-83
2022/07/06 06:35:39;;;;;;;5.27;1.97;;;21.80;99.00;;;;;;5031713;28;20448;-84
2022/07/06 06:38:07;;;;;;;1.97;1.77;;;21.90;98.40;;;;;;5031421;28;20449;-83
2022/07/06 06:40:35;;;;;;;1.67;1.57;;;21.90;99.60;;;;;;5030828;28;20514;-82
2022/07/06 06:43:04;;;;;;;2.13;1.93;;;21.90;99.90;;;;;;5028285;28;20458;-84
2022/07/06 06:45:34;;;;;;;1.90;1.70;;;21.90;99.90;;;;;;5027367;28;20478;-83
2022/07/06 06:48:02;;;;;;;2.10;1.70;;;22.00;99.90;;;;;;5032880;28;20464;-83
2022/07/06 06:50:31;;;;;;;1.63;1.53;;;22.00;99.90;;;;;;5027512;28;20465;-84
2022/07/06 06:52:59;;;;;;;2.00;1.90;;;22.00;99.90;;;;;;5056244;28;20821;-83
2022/07/06 06:55:28;;;;;;;2.50;1.50;;;22.10;99.90;;;;;;5031278;28;20460;-83
2022/07/06 06:57:56;;;;;;;1.93;1.83;;;22.10;99.90;;;;;;5021109;28;20490;-84
2022/07/06 07:00:25;;;;;;;1.83;1.70;;;22.20;99.90;;;;;;5034108;28;20559;-83
2022/07/06 07:02:54;;;;;;;2.17;1.40;;;22.20;99.90;;;;;;5025484;28;20457;-83
2022/07/06 07:05:23;;;;;;;1.77;1.67;;;22.30;99.90;;;;;;5029141;28;20480;-83
2022/07/06 07:07:51;;;;;;;1.70;1.60;;;22.30;99.90;;;;;;5027650;28;20478;-82
2022/07/06 07:10:21;;;;;;;4.20;1.60;;;22.30;99.90;;;;;;5029425;28;20458;-83
2022/07/06 07:12:49;;;;;;;2.00;1.80;;;22.30;99.90;;;;;;5025309;28;20556;-83
2022/07/06 07:15:18;;;;;;;2.13;1.50;;;22.30;99.90;;;;;;5029855;28;20449;-83
2022/07/06 07:17:46;;;;;;;1.70;1.50;;;22.30;99.90;;;;;;5033460;28;20459;-83
2022/07/06 07:20:16;;;;;;;3.80;1.63;;;22.30;99.90;;;;;;5030732;28;20455;-82
2022/07/06 07:22:44;;;;;;;1.80;1.60;;;22.30;98.70;;;;;;5030648;28;20484;-82
2022/07/06 07:25:13;;;;;;;1.77;1.67;;;22.30;99.90;;;;;;5026377;28;20507;-82
2022/07/06 07:27:41;;;;;;;1.60;1.50;;;22.40;99.90;;;;;;5027862;28;20461;-83
2022/07/06 07:30:11;;;;;;;2.20;1.73;;;22.40;99.90;;;;;;5059537;28;20449;-83
2022/07/06 07:32:40;;;;;;;1.50;1.40;;;22.40;99.20;;;;;;5024710;28;21058;-82
2022/07/06 07:35:09;;;;;;;1.80;1.57;;;22.40;99.90;;;;;;5031820;28;20462;-83
2022/07/06 07:37:39;;;;;;;2.20;2.00;;;22.50;99.90;;;;;;5030555;28;20459;-84
2022/07/06 07:40:08;;;;;;;2.17;2.03;;;22.60;99.90;;;;;;5031972;28;20960;-83
2022/07/06 07:42:40;;;;;;;2.03;1.70;;;22.70;99.90;;;;;;5027174;28;20467;-84
2022/07/06 07:45:09;;;;;;;2.40;2.20;;;22.70;99.90;;;;;;5033287;28;20463;-84
2022/07/06 07:47:37;;;;;;;3.33;2.80;;;22.70;99.90;;;;;;5030051;28;20454;-83
2022/07/06 07:50:07;;;;;;;1.80;1.70;;;22.70;99.90;;;;;;5030800;28;20453;-83
2022/07/06 07:52:36;;;;;;;1.80;1.70;;;22.80;99.90;;;;;;5031365;28;20474;-83
2022/07/06 07:55:07;;;;;;;1.70;1.50;;;22.80;99.90;;;;;;5024224;28;20448;-84
2022/07/06 07:57:55;;;;;;;1.50;1.40;;;22.80;99.90;;;;;;5031842;28;20480;-84
2022/07/06 08:00:25;;;;;;;2.00;1.40;;;22.90;99.90;;;;;;5028840;28;20465;-83
2022/07/06 08:02:55;;;;;;;1.80;1.53;;;22.90;99.90;;;;;;5024887;28;20458;-83
2022/07/06 08:05:24;;;;;;;2.23;1.70;;;23.00;99.90;;;;;;5034408;28;20444;-83
2022/07/06 08:07:52;;;;;;;3.63;1.70;;;23.00;99.90;;;;;;5025864;28;20520;-82
2022/07/06 08:10:22;;;;;;;2.00;1.90;;;23.10;99.90;;;;;;5033614;28;20451;-84
2022/07/06 08:12:51;;;;;;;2.40;2.27;;;23.20;99.90;;;;;;5025284;28;20456;-84
2022/07/06 08:15:19;;;;;;;1.77;1.67;;;23.10;99.90;;;;;;5024279;28;20498;-82
2022/07/06 08:17:48;;;;;;;1.93;1.73;;;23.20;99.90;;;;;;5029106;28;20948;-85
2022/07/06 08:20:16;;;;;;;1.63;1.53;;;23.20;99.90;;;;;;5033660;28;20804;-84
2022/07/06 08:22:45;;;;;;;2.70;2.00;;;23.20;99.90;;;;;;5023774;28;20572;-84
2022/07/06 08:25:13;;;;;;;1.87;1.53;;;23.20;99.90;;;;;;5031194;28;20805;-82
2022/07/06 08:27:44;;;;;;;1.77;1.50;;;23.30;99.90;;;;;;5027035;28;20867;-82
2022/07/06 08:30:13;;;;;;;2.20;1.27;;;23.40;99.90;;;;;;5027694;28;20539;-82
2022/07/06 08:32:42;;;;;;;2.53;2.27;;;23.40;99.90;;;;;;5029424;28;20491;-83
2022/07/06 08:35:30;;;;;;;1.67;1.57;;;23.40;99.90;;;;;;5030380;28;20460;-82
2022/07/06 08:37:59;;;;;;;3.13;1.47;;;23.50;99.90;;;;;;5045398;28;20464;-83
2022/07/06 08:40:33;;;;;;;2.07;1.97;;;23.50;99.90;;;;;;5031948;28;20456;-83
2022/07/06 08:43:03;;;;;;;1.53;1.40;;;23.50;99.90;;;;;;5032287;28;20472;-84
2022/07/06 08:45:34;;;;;;;1.50;1.40;;;23.50;99.90;;;;;;5029262;28;20465;-83
2022/07/06 08:48:05;;;;;;;2.17;1.47;;;23.60;99.90;;;;;;5026539;28;21324;-83
2022/07/06 08:50:34;;;;;;;1.70;1.60;;;23.60;99.90;;;;;;5028428;28;20973;-83
2022/07/06 08:53:04;;;;;;;1.77;1.50;;;23.60;99.90;;;;;;5027852;28;20828;-83
2022/07/06 08:55:33;;;;;;;1.53;1.43;;;23.70;99.90;;;;;;5029136;28;20971;-83
2022/07/06 08:58:04;;;;;;;1.70;1.60;;;23.70;99.90;;;;;;5026384;28;20457;-85
2022/07/06 09:00:34;;;;;;;3.90;2.60;;;23.80;99.90;;;;;;5032595;28;20512;-83
2022/07/06 09:03:04;;;;;;;1.73;1.63;;;23.80;99.90;;;;;;5032706;28;20539;-84
2022/07/06 09:05:35;;;;;;;1.60;1.50;;;23.90;99.90;;;;;;5033768;28;20444;-86
2022/07/06 09:08:04;;;;;;;2.40;1.40;;;23.90;99.90;;;;;;5033043;28;21012;-84
2022/07/06 09:10:33;;;;;;;1.90;1.40;;;23.90;99.90;;;;;;5034951;28;20476;-84
2022/07/06 09:13:07;;;;;;;1.30;1.20;;;23.90;99.90;;;;;;5034941;28;20510;-84
2022/07/06 09:15:38;;;;;;;2.10;1.70;;;24.00;99.90;;;;;;5034986;28;20487;-84
2022/07/06 09:18:08;;;;;;;1.83;1.73;;;24.00;99.90;;;;;;5034809;28;20953;-84
2022/07/06 09:20:37;;;;;;;3.67;1.40;;;24.00;99.90;;;;;;5034037;28;21023;-85
2022/07/06 09:23:06;;;;;;;2.50;1.63;;;24.10;99.90;;;;;;5029594;28;20469;-84
2022/07/06 09:25:43;;;;;;;1.47;1.37;;;24.20;99.90;;;;;;5026706;28;20482;-83
2022/07/06 09:28:13;;;;;;;1.50;1.40;;;24.20;99.90;;;;;;5028601;28;20501;-83
2022/07/06 09:30:43;;;;;;;1.83;1.70;;;24.30;99.90;;;;;;5033007;28;20456;-83
2022/07/06 09:33:18;;;;;;;1.30;1.20;;;24.30;99.90;;;;;;5025032;28;20551;-82
2022/07/06 09:35:47;;;;;;;2.50;1.30;;;24.30;99.90;;;;;;5027156;28;20457;-82
2022/07/06 09:38:17;;;;;;;1.97;1.83;;;24.40;99.90;;;;;;5026572;28;21025;-84
2022/07/06 09:40:47;;;;;;;1.50;1.40;;;24.40;99.90;;;;;;5066044;28;20480;-85
2022/07/06 09:43:20;;;;;;;1.30;1.20;;;24.40;99.90;;;;;;5022095;28;20449;-84
2022/07/06 09:45:51;;;;;;;2.23;1.47;;;24.40;99.90;;;;;;5023900;28;20457;-81
2022/07/06 09:48:21;;;;;;;1.50;1.40;;;24.50;99.90;;;;;;5029371;28;20479;-84
2022/07/06 09:50:53;;;;;;;1.83;1.60;;;24.50;99.90;;;;;;5057705;28;20476;-85
2022/07/06 09:53:23;;;;;;;3.40;1.80;;;24.50;99.90;;;;;;5026070;28;20465;-83
2022/07/06 09:55:55;;;;;;;1.93;1.70;;;24.60;99.90;;;;;;5023648;28;20453;-83
2022/07/06 09:58:25;;;;;;;2.27;1.47;;;24.60;99.90;;;;;;5031905;28;20457;-85
2022/07/06 10:01:26;;;;;;;2.50;1.47;;;24.70;99.90;;;;;;5027031;28;20991;-85
2022/07/06 10:03:55;;;;;;;1.77;1.67;;;24.70;99.90;;;;;;5031356;28;20456;-85
2022/07/06 10:06:25;;;;;;;1.63;1.53;;;24.70;99.90;;;;;;5052255;28;20863;-85
2022/07/06 10:08:55;;;;;;;3.43;1.30;;;24.70;99.90;;;;;;5029303;28;20457;-83
2022/07/06 10:11:25;;;;;;;1.70;1.60;;;24.80;99.90;;;;;;5032083;28;20464;-85
2022/07/06 10:13:57;;;;;;;1.93;1.73;;;24.80;99.90;;;;;;5031127;28;20440;-84
2022/07/06 10:16:26;;;;;;;2.67;1.97;;;24.80;99.90;;;;;;5027685;28;20456;-84
2022/07/06 10:18:55;;;;;;;2.43;1.97;;;24.90;99.90;;;;;;5027037;28;20532;-84
2022/07/06 10:21:24;;;;;;;2.03;1.93;;;24.80;99.90;;;;;;5028600;28;20477;-87
2022/07/06 10:23:56;;;;;;;2.27;1.60;;;24.80;99.90;;;;;;5027625;28;20857;-87
2022/07/06 10:26:25;;;;;;;1.70;1.60;;;24.80;99.90;;;;;;5061564;28;21140;-87
2022/07/06 10:28:56;;;;;;;1.80;1.70;;;24.80;99.90;;;;;;5027703;28;21018;-86
2022/07/06 10:31:25;;;;;;;2.33;1.90;;;24.90;99.90;;;;;;5030568;28;20469;-86
2022/07/06 10:33:54;;;;;;;4.20;1.60;;;25.00;99.90;;;;;;5031981;28;20526;-86
2022/07/06 10:36:23;;;;;;;2.00;1.53;;;25.00;99.90;;;;;;5031414;28;20479;-86
2022/07/06 10:38:53;;;;;;;1.90;1.20;;;25.00;99.90;;;;;;5032393;28;20452;-86
2022/07/06 10:41:31;;;;;;;2.47;1.80;;;25.10;99.90;;;;;;5030570;28;20484;-85
2022/07/06 10:44:16;;;;;;;1.60;1.27;;;25.10;99.90;;;;;;5032249;28;20452;-87
2022/07/06 10:46:52;;;;;;;3.23;1.40;;;25.00;99.90;;;;;;5032409;28;20452;-87
2022/07/06 10:49:22;;;;;;;2.03;1.60;;;25.00;99.90;;;;;;5032495;28;20440;-86
2022/07/06 10:52:10;;;;;;;2.13;1.93;;;25.00;99.90;;;;;;5027946;28;20476;-86
2022/07/06 10:54:40;;;;;;;3.93;2.00;;;25.00;99.90;;;;;;5032424;28;20872;-86
2022/07/06 10:57:11;;;;;;;2.13;1.83;;;25.00;99.90;;;;;;5040620;28;20475;-86
2022/07/06 10:59:41;;;;;;;1.70;1.60;;;25.00;99.90;;;;;;5032476;28;20506;-86
2022/07/06 11:02:14;;;;;;;1.70;1.60;;;25.10;99.90;;;;;;5035445;28;20485;-86
2022/07/06 11:04:44;;;;;;;1.80;1.60;;;25.10;99.90;;;;;;5027910;28;20476;-83
2022/07/06 11:07:14;;;;;;;1.43;1.33;;;25.10;99.90;;;;;;5032504;28;21004;-87
2022/07/06 11:09:54;;;;;;;1.60;1.50;;;25.00;99.90;;;;;;5036316;28;20456;-87
2022/07/06 11:12:23;;;;;;;3.50;1.80;;;25.10;99.90;;;;;;5031935;28;20483;-86
2022/07/06 11:14:54;;;;;;;1.30;1.20;;;25.10;99.90;;;;;;5037668;28;20467;-87
2022/07/06 11:17:23;;;;;;;1.70;1.60;;;25.00;99.90;;;;;;5036925;28;20460;-87
2022/07/06 11:19:56;;;;;;;1.40;1.30;;;25.00;99.90;;;;;;5032523;28;20523;-87
2022/07/06 11:22:25;;;;;;;2.20;1.90;;;25.00;99.90;;;;;;5037484;28;21001;-86
2022/07/06 11:24:55;;;;;;;1.70;1.53;;;25.00;99.90;;;;;;5038101;28;20483;-87
2022/07/06 11:27:25;;;;;;;1.80;1.60;;;25.00;99.90;;;;;;5037981;28;20547;-86
2022/07/06 11:29:56;;;;;;;2.13;1.77;;;25.00;99.90;;;;;;5032962;28;21051;-87
2022/07/06 11:32:26;;;;;;;2.33;1.70;;;25.00;99.90;;;;;;5038420;28;20484;-87
2022/07/06 11:34:54;;;;;;;2.13;1.93;;;25.00;99.90;;;;;;5036903;28;20456;-86
2022/07/06 11:37:23;;;;;;;3.67;2.13;;;25.00;99.90;;;;;;5031078;28;21509;-81
2022/07/06 11:39:51;;;;;;;3.80;1.70;;;25.00;99.90;;;;;;5031918;28;20452;-81
2022/07/06 11:42:19;;;;;;;2.07;1.87;;;25.00;99.90;;;;;;5030729;28;21100;-81
2022/07/06 11:44:50;;;;;;;1.77;1.67;;;25.00;99.90;;;;;;5033733;28;20441;-82
2022/07/06 11:47:21;;;;;;;1.97;1.87;;;25.00;99.90;;;;;;5034821;28;20452;-82
2022/07/06 11:49:52;;;;;;;4.13;1.77;;;25.00;99.90;;;;;;5030525;28;21146;-82
2022/07/06 11:52:23;;;;;;;2.70;1.70;;;25.00;99.90;;;;;;5027621;28;20672;-81
2022/07/06 11:54:59;;;;;;;3.20;1.87;;;25.10;99.90;;;;;;5024214;28;20502;-81
2022/07/06 11:57:30;;;;;;;3.67;2.20;;;25.10;99.90;;;;;;5033640;28;20460;-81
2022/07/06 11:59:58;;;;;;;4.63;2.30;;;25.20;99.90;;;;;;5034900;28;20448;-81
2022/07/06 12:02:28;;;;;;;2.23;1.90;;;25.20;99.90;;;;;;5030282;28;20479;-81
2022/07/06 12:04:57;;;;;;;4.70;2.63;;;25.20;99.90;;;;;;5055312;28;20820;-81
2022/07/06 12:07:25;;;;;;;2.27;2.07;;;25.20;99.90;;;;;;5031542;28;20520;-81
2022/07/06 12:09:54;;;;;;;2.47;2.27;;;25.30;99.90;;;;;;5032819;28;20463;-80
2022/07/06 12:12:22;;;;;;;1.73;1.60;;;25.30;99.90;;;;;;5032547;28;20486;-81
2022/07/06 12:14:54;;;;;;;2.03;1.70;;;25.30;99.90;;;;;;5033344;28;20459;-80
2022/07/06 12:17:22;;;;;;;1.80;1.70;;;25.40;99.90;;;;;;5030218;28;20901;-81
2022/07/06 12:19:56;;;;;;;2.37;2.17;;;25.30;99.90;;;;;;5032163;28;20977;-80
2022/07/06 12:22:26;;;;;;;2.47;2.27;;;25.30;99.90;;;;;;5023845;28;21125;-81
2022/07/06 12:24:54;;;;;;;5.57;2.07;;;25.40;99.90;;;;;;5027479;28;20480;-82
2022/07/06 12:27:23;;;;;;;3.60;2.20;;;25.40;99.90;;;;;;5030331;28;20478;-81
2022/07/06 12:29:51;;;;;;;2.20;2.00;;;25.40;99.90;;;;;;5028881;28;20476;-81
2022/07/06 12:32:22;;;;;;;7.03;1.70;;;25.40;99.90;;;;;;5026246;28;21034;-82
2022/07/06 12:35:05;;;;;;;3.23;2.23;;;25.40;99.90;;;;;;5026701;28;20436;-80
2022/07/06 12:37:33;;;;;;;4.27;1.90;;;25.40;99.90;;;;;;5028300;28;20461;-80
2022/07/06 12:40:02;;;;;;;2.87;1.90;;;25.40;99.90;;;;;;5029916;28;20826;-80
2022/07/06 12:42:30;;;;;;;2.87;2.20;;;25.40;99.90;;;;;;5031211;28;20496;-81
2022/07/06 12:44:58;;;;;;;2.03;1.83;;;25.40;99.90;;;;;;5029838;28;20534;-82
2022/07/06 12:47:27;;;;;;;2.13;1.83;;;25.40;99.90;;;;;;5029387;28;20444;-82
2022/07/06 12:50:08;;;;;;;3.33;1.80;;;25.50;99.90;;;;;;5027772;28;20922;-82
2022/07/06 12:52:37;;;;;;;1.70;1.60;;;25.50;99.90;;;;;;5020357;28;20983;-81
2022/07/06 12:55:07;;;;;;;2.30;2.10;;;25.50;99.90;;;;;;5028141;28;20522;-81
2022/07/06 12:57:44;;;;;;;2.87;1.93;;;25.60;99.90;;;;;;5033029;28;20535;-81
2022/07/06 13:00:14;;;;;;;2.33;1.77;;;25.60;99.90;;;;;;5020259;28;20452;-81
2022/07/06 13:02:45;;;;;;;1.87;1.77;;;25.50;99.90;;;;;;5029707;28;20486;-80
2022/07/06 13:05:35;;;;;;;1.60;1.50;;;25.50;99.90;;;;;;5029160;28;20460;-81